sensor_id;sensor_type;location;lat;lon;timestamp;temperature;humidity
20315;DHT22;10315;50.958;13.080;2023-11-25T00:04:04;0.70;99.90
20315;DHT22;10315;50.958;13.080;2023-11-25T00:14:07;0.60;99.90
20315;DHT22;10315;50.958;13.080;2023-11-25T00:24:09;0.60;99.90
20315;DHT22;10315;50.958;13.080;2023-11-25T00:34:12;0.60;99.90
20315;DHT22;10315;50.958;13.080;2023-11-25T00:44:14;0.60;99.90
20315;DHT22;10315;50.958;13.080;2023-11-25T00:54:17;0.50;99.90
20315;DHT22;10315;50.958;13.080;2023-11-25T01:04:19;0.60;99.90
20315;DHT22;10315;50.958;13.080;2023-11-25T01:14:22;0.50;99.90
20315;DHT22;10315;50.958;13.080;2023-11-25T01:24:23;0.50;99.90
20315;DHT22;10315;50.958;13.080;2023-11-25T01:34:26;0.50;99.90
20315;DHT22;10315;50.958;13.080;2023-11-25T01:44:28;0.40;99.90
20315;DHT22;10315;50.958;13.080;2023-11-25T01:54:31;0.40;99.90
20315;DHT22;10315;50.958;13.080;2023-11-25T02:04:34;0.40;99.90
20315;DHT22;10315;50.958;13.080;2023-11-25T02:14:37;0.50;99.90
20315;DHT22;10315;50.958;13.080;2023-11-25T02:24:40;0.40;99.90
20315;DHT22;10315;50.958;13.080;2023-11-25T02:34:42;0.30;99.90
20315;DHT22;10315;50.958;13.080;2023-11-25T02:44:45;0.30;99.90
20315;DHT22;10315;50.958;13.080;2023-11-25T02:54:46;0.30;99.90
20315;DHT22;10315;50.958;13.080;2023-11-25T03:04:49;0.20;99.90
20315;DHT22;10315;50.958;13.080;2023-11-25T03:14:51;0.20;99.90
20315;DHT22;10315;50.958;13.080;2023-11-25T03:24:54;0.30;99.90
20315;DHT22;10315;50.958;13.080;2023-11-25T03:34:56;0.40;99.90
20315;DHT22;10315;50.958;13.080;2023-11-25T03:44:59;0.40;99.90
20315;DHT22;10315;50.958;13.080;2023-11-25T03:55:00;0.30;99.90
20315;DHT22;10315;50.958;13.080;2023-11-25T04:05:05;0.30;99.90
20315;DHT22;10315;50.958;13.080;2023-11-25T04:15:08;0.40;99.90
20315;DHT22;10315;50.958;13.080;2023-11-25T04:25:12;0.30;99.90
20315;DHT22;10315;50.958;13.080;2023-11-25T04:35:14;0.40;99.90
20315;DHT22;10315;50.958;13.080;2023-11-25T04:45:17;0.40;99.90
20315;DHT22;10315;50.958;13.080;2023-11-25T04:55:20;0.30;99.90
20315;DHT22;10315;50.958;13.080;2023-11-25T05:05:29;0.30;99.90
20315;DHT22;10315;50.958;13.080;2023-11-25T05:15:30;0.30;99.90
20315;DHT22;10315;50.958;13.080;2023-11-25T05:25:33;0.20;99.90
20315;DHT22;10315;50.958;13.080;2023-11-25T05:35:35;0.20;99.90
20315;DHT22;10315;50.958;13.080;2023-11-25T05:45:38;0.20;99.90
20315;DHT22;10315;50.958;13.080;2023-11-25T05:55:42;0.10;99.90
20315;DHT22;10315;50.958;13.080;2023-11-25T06:05:45;0.00;99.90
20315;DHT22;10315;50.958;13.080;2023-11-25T06:15:47;0.00;99.90
20315;DHT22;10315;50.958;13.080;2023-11-25T06:25:50;0.00;99.90
20315;DHT22;10315;50.958;13.080;2023-11-25T06:35:52;0.00;99.90
20315;DHT22;10315;50.958;13.080;2023-11-25T06:45:56;0.00;99.90
20315;DHT22;10315;50.958;13.080;2023-11-25T06:56:00;0.00;99.90
20315;DHT22;10315;50.958;13.080;2023-11-25T07:06:03;0.00;99.90
20315;DHT22;10315;50.958;13.080;2023-11-25T07:16:06;0.00;99.90
20315;DHT22;10315;50.958;13.080;2023-11-25T07:26:09;0.00;99.90
20315;DHT22;10315;50.958;13.080;2023-11-25T07:36:12;0.00;99.90
20315;DHT22;10315;50.958;13.080;2023-11-25T07:46:15;0.00;99.90
20315;DHT22;10315;50.958;13.080;2023-11-25T07:56:18;0.10;99.90
20315;DHT22;10315;50.958;13.080;2023-11-25T08:06:22;0.10;99.90
20315;DHT22;10315;50.958;13.080;2023-11-25T08:16:26;0.00;99.90
20315;DHT22;10315;50.958;13.080;2023-11-25T08:26:29;0.30;99.90
20315;DHT22;10315;50.958;13.080;2023-11-25T08:36:30;0.40;99.90
20315;DHT22;10315;50.958;13.080;2023-11-25T08:46:33;0.70;99.90
20315;DHT22;10315;50.958;13.080;2023-11-25T08:56:39;0.60;99.90
20315;DHT22;10315;50.958;13.080;2023-11-25T09:06:42;0.50;99.90
20315;DHT22;10315;50.958;13.080;2023-11-25T09:16:46;0.70;99.90
20315;DHT22;10315;50.958;13.080;2023-11-25T09:26:51;0.60;99.90
20315;DHT22;10315;50.958;13.080;2023-11-25T09:36:55;0.60;99.90
20315;DHT22;10315;50.958;13.080;2023-11-25T09:46:58;0.70;99.90
20315;DHT22;10315;50.958;13.080;2023-11-25T09:57:00;0.90;99.90
20315;DHT22;10315;50.958;13.080;2023-11-25T10:07:04;1.10;99.90
20315;DHT22;10315;50.958;13.080;2023-11-25T10:17:15;1.30;99.90
20315;DHT22;10315;50.958;13.080;2023-11-25T10:27:19;1.00;99.90
20315;DHT22;10315;50.958;13.080;2023-11-25T10:37:22;0.90;99.90
20315;DHT22;10315;50.958;13.080;2023-11-25T10:47:30;1.00;99.90
20315;DHT22;10315;50.958;13.080;2023-11-25T10:57:32;1.10;99.90
20315;DHT22;10315;50.958;13.080;2023-11-25T11:07:36;1.00;99.90
20315;DHT22;10315;50.958;13.080;2023-11-25T11:17:45;1.00;99.90
20315;DHT22;10315;50.958;13.080;2023-11-25T11:27:55;0.90;99.90
20315;DHT22;10315;50.958;13.080;2023-11-25T11:37:58;0.90;99.90
20315;DHT22;10315;50.958;13.080;2023-11-25T11:48:01;0.90;99.90
20315;DHT22;10315;50.958;13.080;2023-11-25T11:58:04;0.90;99.90
20315;DHT22;10315;50.958;13.080;2023-11-25T12:08:08;0.90;99.90
20315;DHT22;10315;50.958;13.080;2023-11-25T12:18:10;0.90;99.90
20315;DHT22;10315;50.958;13.080;2023-11-25T12:28:16;0.90;99.90
20315;DHT22;10315;50.958;13.080;2023-11-25T12:38:18;0.90;99.90
20315;DHT22;10315;50.958;13.080;2023-11-25T12:48:30;0.90;99.90
20315;DHT22;10315;50.958;13.080;2023-11-25T12:58:33;0.90;99.90
20315;DHT22;10315;50.958;13.080;2023-11-25T13:08:37;1.00;99.90
20315;DHT22;10315;50.958;13.080;2023-11-25T13:18:46;1.00;99.90
20315;DHT22;10315;50.958;13.080;2023-11-25T13:28:49;1.00;99.90
20315;DHT22;10315;50.958;13.080;2023-11-25T13:38:51;1.00;99.90
20315;DHT22;10315;50.958;13.080;2023-11-25T13:48:54;1.00;99.90
20315;DHT22;10315;50.958;13.080;2023-11-25T13:58:55;0.90;99.90
20315;DHT22;10315;50.958;13.080;2023-11-25T14:08:59;1.10;99.90
20315;DHT22;10315;50.958;13.080;2023-11-25T14:19:03;1.00;99.90
20315;DHT22;10315;50.958;13.080;2023-11-25T14:29:06;1.00;99.90
20315;DHT22;10315;50.958;13.080;2023-11-25T14:39:08;0.90;99.90
20315;DHT22;10315;50.958;13.080;2023-11-25T14:49:11;1.00;99.90
20315;DHT22;10315;50.958;13.080;2023-11-25T14:59:15;0.90;99.90
20315;DHT22;10315;50.958;13.080;2023-11-25T15:09:18;0.90;99.90
20315;DHT22;10315;50.958;13.080;2023-11-25T15:19:19;0.90;99.90
20315;DHT22;10315;50.958;13.080;2023-11-25T15:29:22;0.90;99.90
20315;DHT22;10315;50.958;13.080;2023-11-25T15:39:24;0.90;99.90
20315;DHT22;10315;50.958;13.080;2023-11-25T15:49:28;0.80;99.90
20315;DHT22;10315;50.958;13.080;2023-11-25T15:59:30;0.80;99.90
20315;DHT22;10315;50.958;13.080;2023-11-25T16:09:34;0.80;99.90
20315;DHT22;10315;50.958;13.080;2023-11-25T16:19:36;0.80;99.90
20315;DHT22;10315;50.958;13.080;2023-11-25T16:29:39;0.80;99.90
20315;DHT22;10315;50.958;13.080;2023-11-25T16:39:41;0.90;99.90
20315;DHT22;10315;50.958;13.080;2023-11-25T16:49:44;0.80;99.90
20315;DHT22;10315;50.958;13.080;2023-11-25T16:59:47;0.80;99.90
20315;DHT22;10315;50.958;13.080;2023-11-25T17:09:50;0.80;99.90
20315;DHT22;10315;50.958;13.080;2023-11-25T17:19:51;0.90;99.90
20315;DHT22;10315;50.958;13.080;2023-11-25T17:29:54;0.90;99.90
20315;DHT22;10315;50.958;13.080;2023-11-25T17:39:57;0.90;99.90
20315;DHT22;10315;50.958;13.080;2023-11-25T17:50:00;1.00;99.90
20315;DHT22;10315;50.958;13.080;2023-11-25T18:00:03;1.00;99.90
20315;DHT22;10315;50.958;13.080;2023-11-25T18:10:07;1.00;99.90
20315;DHT22;10315;50.958;13.080;2023-11-25T18:20:10;0.90;99.90
20315;DHT22;10315;50.958;13.080;2023-11-25T18:30:14;0.90;99.90
20315;DHT22;10315;50.958;13.080;2023-11-25T18:40:17;0.90;99.90
20315;DHT22;10315;50.958;13.080;2023-11-25T18:50:20;0.90;99.90
20315;DHT22;10315;50.958;13.080;2023-11-25T19:00:27;0.90;99.90
20315;DHT22;10315;50.958;13.080;2023-11-25T19:10:30;0.80;99.90
20315;DHT22;10315;50.958;13.080;2023-11-25T19:20:32;0.80;99.90
20315;DHT22;10315;50.958;13.080;2023-11-25T19:30:35;0.90;99.90
20315;DHT22;10315;50.958;13.080;2023-11-25T19:40:37;0.80;99.90
20315;DHT22;10315;50.958;13.080;2023-11-25T19:50:40;0.90;99.90
20315;DHT22;10315;50.958;13.080;2023-11-25T20:00:43;0.80;99.90
20315;DHT22;10315;50.958;13.080;2023-11-25T20:10:46;0.80;99.90
20315;DHT22;10315;50.958;13.080;2023-11-25T20:20:48;0.80;99.90
20315;DHT22;10315;50.958;13.080;2023-11-25T20:30:52;0.90;99.90
20315;DHT22;10315;50.958;13.080;2023-11-25T20:40:54;0.80;99.90
20315;DHT22;10315;50.958;13.080;2023-11-25T20:50:59;0.80;99.90
20315;DHT22;10315;50.958;13.080;2023-11-25T21:01:05;0.80;99.90
20315;DHT22;10315;50.958;13.080;2023-11-25T21:11:09;0.60;99.90
20315;DHT22;10315;50.958;13.080;2023-11-25T21:21:10;0.60;99.90
20315;DHT22;10315;50.958;13.080;2023-11-25T21:31:14;0.50;99.90
20315;DHT22;10315;50.958;13.080;2023-11-25T21:41:16;0.40;99.90
20315;DHT22;10315;50.958;13.080;2023-11-25T21:51:19;0.40;99.90
20315;DHT22;10315;50.958;13.080;2023-11-25T22:01:21;0.40;99.90
20315;DHT22;10315;50.958;13.080;2023-11-25T22:11:24;0.40;99.90
20315;DHT22;10315;50.958;13.080;2023-11-25T22:21:26;0.30;99.90
20315;DHT22;10315;50.958;13.080;2023-11-25T22:31:31;0.10;99.90
20315;DHT22;10315;50.958;13.080;2023-11-25T22:41:32;0.10;99.90
20315;DHT22;10315;50.958;13.080;2023-11-25T22:51:35;0.10;99.90
20315;DHT22;10315;50.958;13.080;2023-11-25T23:01:37;0.10;99.90
20315;DHT22;10315;50.958;13.080;2023-11-25T23:11:40;0.10;99.90
20315;DHT22;10315;50.958;13.080;2023-11-25T23:21:42;0.20;99.90
20315;DHT22;10315;50.958;13.080;2023-11-25T23:31:45;0.00;99.90
20315;DHT22;10315;50.958;13.080;2023-11-25T23:41:47;0.00;99.90
20315;DHT22;10315;50.958;13.080;2023-11-25T23:51:51;-0.10;99.90
